Actual water levels and discharges of Elbe river

Guaranteed water level and forecast    Ústí nad Labem-Střekov

Guaranteed water level
165 cm
on 19.07.2024 more information
Forecast
155 cm
on 20.07.2024 07:00
Tendency
Slowly decreasing
on 20.07.2024 tendency methodology
Assumption
140 cm
on 21.07.2024 07:00
(Source data ČHMÚ a Povodí Labe)

Děčín

Date and time (UTC) H (cm) Q (m³/s)
20. 7. 2024 04:50 131 141
20. 7. 2024 04:00 132 142
20. 7. 2024 03:00 135 147
20. 7. 2024 02:00 137 150
20. 7. 2024 01:00 139 153
20. 7. 2024 00:00 141 156
19. 7. 2024 23:00 141 156
19. 7. 2024 22:00 139 153
19. 7. 2024 21:00 137 150
19. 7. 2024 20:00 135 147
19. 7. 2024 19:00 134 145
19. 7. 2024 18:00 134 145
19. 7. 2024 17:00 135 147
19. 7. 2024 16:00 136 148

H - water level, Q - discharge

Ústí nad Labem

Date and time (UTC) H (cm) Q (m³/s)
20. 7. 2024 04:50 156 118
20. 7. 2024 04:00 156 118
20. 7. 2024 03:00 158 121
20. 7. 2024 02:00 159 122
20. 7. 2024 01:00 160 124
20. 7. 2024 00:00 161 125
19. 7. 2024 23:00 167 134
19. 7. 2024 22:00 167 134
19. 7. 2024 21:00 170 138
19. 7. 2024 20:00 175 146
19. 7. 2024 19:00 178 151
19. 7. 2024 18:00 176 148
19. 7. 2024 17:00 172 142
19. 7. 2024 16:00 170 138

H - water level, Q - discharge
more information

Mělník

Date and time (UTC) H (cm) Q (m³/s)
20. 7. 2024 04:50 263 -
20. 7. 2024 04:00 259 -
20. 7. 2024 03:00 262 -
20. 7. 2024 02:00 270 -
20. 7. 2024 01:00 261 -
20. 7. 2024 00:00 258 -
19. 7. 2024 23:00 271 -
19. 7. 2024 22:00 270 -
19. 7. 2024 21:00 266 -
19. 7. 2024 20:00 258 -
19. 7. 2024 19:00 255 -
19. 7. 2024 18:00 263 -
19. 7. 2024 17:00 275 -
19. 7. 2024 16:00 266 -

H - water level, Q - discharge
more information

Kostelec nad Labem

Date and time (UTC) H (cm) Q (m³/s)
20. 7. 2024 04:50 405 -
20. 7. 2024 04:00 398 -
20. 7. 2024 03:00 403 22
20. 7. 2024 02:00 397 19
20. 7. 2024 01:00 401 17
20. 7. 2024 00:00 403 29
19. 7. 2024 23:00 398 30
19. 7. 2024 22:00 401 21
19. 7. 2024 21:00 400 21
19. 7. 2024 20:00 397 33
19. 7. 2024 19:00 402 15
19. 7. 2024 18:00 396 12
19. 7. 2024 17:00 397 10
19. 7. 2024 16:00 402 18

H - water level, Q - discharge
more information

Přelouč

Date and time (UTC) H (cm) Q (m³/s)
20. 7. 2024 04:50 51 24.7
20. 7. 2024 04:00 50 24
20. 7. 2024 03:00 45 21
20. 7. 2024 02:00 43 20
20. 7. 2024 01:00 51 25
20. 7. 2024 00:00 53 26
19. 7. 2024 23:00 53 26
19. 7. 2024 22:00 48 23
19. 7. 2024 21:00 46 22
19. 7. 2024 20:00 52 25
19. 7. 2024 19:00 54 27
19. 7. 2024 18:00 54 27
19. 7. 2024 17:00 45 21
19. 7. 2024 16:00 44 20

H - water level, Q - discharge
more information

Němčice

Date and time (UTC) H (cm) Q (m³/s)
20. 7. 2024 04:50 78 17.6
20. 7. 2024 04:00 77 17
20. 7. 2024 03:00 80 18
20. 7. 2024 02:00 80 18
20. 7. 2024 01:00 80 18
20. 7. 2024 00:00 79 18
19. 7. 2024 23:00 78 18
19. 7. 2024 22:00 78 18
19. 7. 2024 21:00 80 18
19. 7. 2024 20:00 82 19
19. 7. 2024 19:00 81 19
19. 7. 2024 18:00 81 19
19. 7. 2024 17:00 83 19
19. 7. 2024 16:00 84 20

H - water level, Q - discharge
Source data
Labe Basin Vltava Basin Povodí Moravy ČHMÚ
Po vodě ekologicky, levně a v pohodě
backgroung on backgroung off